Řízení letového provozu České republiky  
Aktualizace dat:  07.02.2016 00:58:05 UTC English version
   METEO Zobrazení stránky:  07.02.2016 01:00:27 UTC  
vysvětlivky
METAR EDDB 070050Z 14006KT CAVOK 04/02 Q1007 NOSIG=
METAR EDDC 070050Z 14015KT CAVOK 05/02 Q1008=
METAR EDDE 070050Z 19009KT CAVOK 06/01 Q1006=
METAR EDDF 070050Z 34003KT 300V360 CAVOK 02/01 Q1005 NOSIG=
METAR EDDM 070050Z VRB02KT 9999 1000N R08L/0700D R08R/P2000N BCFG NSC 00/00 Q1008 NOSIG=
METAR EDDN 070050Z 11006KT 9999 MIFG NSC M00/M01 Q1008=
METAR EDDP 070050Z 17008KT CAVOK 04/02 Q1006 NOSIG=
METAR EDDT 070050Z 17006KT 140V200 CAVOK 06/02 Q1007=
METAR EDQM 061650Z 16003KT CAVOK 04/01 Q1013=
METAR EPBY 070030Z 17005KT CAVOK 04/02 Q1011 =
METAR EPGD 070030Z 21007G19KT 160V250 8000 NSC 05/03 Q1009 =
METAR EPKK 070030Z 04006KT 3500 BR NSC M01/M02 Q1016 =
METAR EPKT 070030Z 16009KT CAVOK 02/M01 Q1015 =
METAR EPLL 070030Z 14006KT CAVOK 04/01 Q1014 =
METAR EPPO 070030Z 18005KT CAVOK 05/03 Q1011 =
METAR EPRZ 070030Z 18017KT CAVOK 03/M00 Q1020 =
METAR EPWA 070030Z 16007KT CAVOK 01/M02 Q1016 NOSIG=
METAR EPWR 070030Z 16007KT CAVOK 07/01 Q1013 =
METAR LHBP 070030Z 10010KT 8000 NSC 00/00 Q1023 NOSIG=
METAR LHSM NIL
METAR LKCV 070000Z 14009KT CAVOK 05/02 Q1013 NOSIG=
METAR LKKB 070000Z 09003KT 050V130 CAVOK 00/M01 Q1012 =
METAR LKKU NIL
METAR LKKV 070000Z VRB03KT CAVOK M00/M01 Q1009 RMK REG QNH 1005=
METAR LKLN NIL
METAR LKMT 070030Z 21006KT CAVOK 05/M01 Q1016 NOSIG RMK REG QNH 1005=
METAR LKNA 070000Z 11010KT CAVOK 01/00 Q1015=
METAR LKPD 070000Z 06004KT 030V100 CAVOK 04/01 Q1014 =
METAR LKPR 070030Z 12005KT CAVOK 02/00 Q1011 NOSIG RMK REG QNH 1005=
METAR LKTB 070030Z 11014KT CAVOK 04/00 Q1016 NOSIG RMK REG QNH 1005=
METAR LKVO NIL
METAR LOWI 070050Z AUTO VRB06KT 9999 BKN190 03/M01 Q1014=
METAR LOWL 070050Z AUTO 08005KT 9999 NCD 01/00 Q1011=
METAR LOWS 070050Z AUTO 19006KT 080V220 9999 FEW160 BKN170 05/M00 Q1009=
METAR LOWW 070050Z 11013KT CAVOK 04/01 Q1015 NOSIG=
METAR LZIB 070030Z 08011KT 9999 FEW013 03/00 Q1018=
METAR LZKZ 070030Z 24006KT 9999 FEW010 BKN029 01/M00 Q1025=
METAR LZPP 070030Z AUTO 12017G30KT 9999 NCD 05/M00 Q1019=
METAR LZSL 070030Z 06005KT 020V110 9999 SCT020 M00/M01 Q1023=
METAR LZTT 070030Z 17008KT CAVOK M01/M03 Q1020=
METAR LZZI 070030Z VRB01KT 0900 R06/P2000U FZFG NSC M02/M03 Q1020=